sensor_id;sensor_type;location;lat;lon;timestamp;pressure;altitude;pressure_sealevel;temperature;humidity
20228;BME280;12195;55.790;37.572;2023-04-08T00:01:56;100867.81;;;5.41;40.99
20228;BME280;12195;55.790;37.572;2023-04-08T00:04:31;100866.96;;;5.39;41.24
20228;BME280;12195;55.790;37.572;2023-04-08T00:07:09;100864.37;;;5.38;41.36
20228;BME280;12195;55.790;37.572;2023-04-08T00:09:45;100863.55;;;5.36;41.25
20228;BME280;12195;55.790;37.572;2023-04-08T00:12:17;100862.70;;;5.34;41.36
20228;BME280;12195;55.790;37.572;2023-04-08T00:14:49;100867.07;;;5.33;41.43
20228;BME280;12195;55.790;37.572;2023-04-08T00:17:29;100879.22;;;5.33;41.43
20228;BME280;12195;55.790;37.572;2023-04-08T00:20:01;100872.31;;;5.30;41.45
20228;BME280;12195;55.790;37.572;2023-04-08T00:22:35;100871.44;;;5.30;41.64
20228;BME280;12195;55.790;37.572;2023-04-08T00:25:08;100871.52;;;5.27;41.67
20228;BME280;12195;55.790;37.572;2023-04-08T00:27:48;100874.17;;;5.22;41.99
20228;BME280;12195;55.790;37.572;2023-04-08T00:30:20;100876.79;;;5.21;42.05
20228;BME280;12195;55.790;37.572;2023-04-08T00:32:53;100866.43;;;5.16;42.15
20228;BME280;12195;55.790;37.572;2023-04-08T00:35:25;100866.50;;;5.13;42.26
20228;BME280;12195;55.790;37.572;2023-04-08T00:37:57;100875.22;;;5.11;42.43
20228;BME280;12195;55.790;37.572;2023-04-08T00:40:30;100870.91;;;5.08;42.64
20228;BME280;12195;55.790;37.572;2023-04-08T00:43:03;100873.53;;;5.07;42.58
20228;BME280;12195;55.790;37.572;2023-04-08T00:45:35;100873.56;;;5.04;42.65
20228;BME280;12195;55.790;37.572;2023-04-08T00:48:07;100865.78;;;5.02;42.66
20228;BME280;12195;55.790;37.572;2023-04-08T00:50:41;100875.31;;;5.02;42.87
20228;BME280;12195;55.790;37.572;2023-04-08T00:53:18;100870.11;;;5.02;42.85
20228;BME280;12195;55.790;37.572;2023-04-08T00:55:58;100866.68;;;5.00;42.91
20228;BME280;12195;55.790;37.572;2023-04-08T00:58:24;100869.28;;;5.00;43.01
20228;BME280;12195;55.790;37.572;2023-04-08T01:01:09;100873.63;;;4.98;43.30
20228;BME280;12195;55.790;37.572;2023-04-08T01:03:47;100872.81;;;4.96;43.07
20228;BME280;12195;55.790;37.572;2023-04-08T01:06:56;100876.31;;;4.93;43.24
20228;BME280;12195;55.790;37.572;2023-04-08T01:09:00;100871.17;;;4.87;43.41
20228;BME280;12195;55.790;37.572;2023-04-08T01:11:41;100867.75;;;4.85;43.57
20228;BME280;12195;55.790;37.572;2023-04-08T01:14:15;100877.34;;;4.82;43.69
20228;BME280;12195;55.790;37.572;2023-04-08T01:16:48;100869.59;;;4.77;43.75
20228;BME280;12195;55.790;37.572;2023-04-08T01:19:30;100869.62;;;4.73;43.96
20228;BME280;12195;55.790;37.572;2023-04-08T01:22:22;100868.80;;;4.71;44.19
20228;BME280;12195;55.790;37.572;2023-04-08T01:24:56;100870.59;;;4.67;44.33
20228;BME280;12195;55.790;37.572;2023-04-08T01:27:28;100880.14;;;4.65;44.49
20228;BME280;12195;55.790;37.572;2023-04-08T01:30:04;100868.03;;;4.63;44.65
20228;BME280;12195;55.790;37.572;2023-04-08T01:32:38;100874.14;;;4.60;44.90
20228;BME280;12195;55.790;37.572;2023-04-08T01:35:12;100871.56;;;4.57;44.92
20228;BME280;12195;55.790;37.572;2023-04-08T01:37:47;100875.95;;;4.54;45.06
20228;BME280;12195;55.790;37.572;2023-04-08T01:40:20;100870.78;;;4.51;45.04
20228;BME280;12195;55.790;37.572;2023-04-08T01:42:55;100866.48;;;4.48;45.19
20228;BME280;12195;55.790;37.572;2023-04-08T01:45:30;100876.06;;;4.45;45.26
20228;BME280;12195;55.790;37.572;2023-04-08T01:48:03;100876.98;;;4.41;45.46
20228;BME280;12195;55.790;37.572;2023-04-08T01:50:36;100873.53;;;4.37;45.89
20228;BME280;12195;55.790;37.572;2023-04-08T01:53:09;100886.39;;;4.49;43.83
20228;BME280;12195;55.790;37.572;2023-04-08T01:55:47;100872.73;;;4.32;45.66
20228;BME280;12195;55.790;37.572;2023-04-08T01:58:21;100874.51;;;4.29;46.06
20228;BME280;12195;55.790;37.572;2023-04-08T02:00:54;100872.76;;;4.28;46.19
20228;BME280;12195;55.790;37.572;2023-04-08T02:03:29;100875.41;;;4.25;46.30
20228;BME280;12195;55.790;37.572;2023-04-08T02:06:02;100878.91;;;4.22;46.30
20228;BME280;12195;55.790;37.572;2023-04-08T02:08:34;100878.95;;;4.18;46.43
20228;BME280;12195;55.790;37.572;2023-04-08T02:11:07;100873.76;;;4.16;46.66
20228;BME280;12195;55.790;37.572;2023-04-08T02:13:41;100874.68;;;4.11;46.94
20228;BME280;12195;55.790;37.572;2023-04-08T02:16:23;100876.47;;;4.06;47.11
20228;BME280;12195;55.790;37.572;2023-04-08T02:19:28;100873.89;;;4.03;47.23
20228;BME280;12195;55.790;37.572;2023-04-08T02:21:44;100877.39;;;3.99;47.43
20228;BME280;12195;55.790;37.572;2023-04-08T02:24:20;100869.66;;;3.96;47.69
20228;BME280;12195;55.790;37.572;2023-04-08T02:26:55;100882.67;;;3.91;47.74
20228;BME280;12195;55.790;37.572;2023-04-08T02:29:30;100877.49;;;3.88;47.79
20228;BME280;12195;55.790;37.572;2023-04-08T02:32:04;100875.78;;;3.86;47.98
20228;BME280;12195;55.790;37.572;2023-04-08T02:34:39;100886.17;;;3.86;48.00
20228;BME280;12195;55.790;37.572;2023-04-08T02:37:12;100886.19;;;3.84;48.04
20228;BME280;12195;55.790;37.572;2023-04-08T02:39:45;100887.95;;;3.84;48.08
20228;BME280;12195;55.790;37.572;2023-04-08T02:42:17;100889.67;;;3.82;48.26
20228;BME280;12195;55.790;37.572;2023-04-08T02:44:49;100891.45;;;3.78;48.14
20228;BME280;12195;55.790;37.572;2023-04-08T02:47:22;100897.53;;;3.77;48.38
20228;BME280;12195;55.790;37.572;2023-04-08T02:49:54;100889.74;;;3.76;48.93
20228;BME280;12195;55.790;37.572;2023-04-08T02:52:26;100898.37;;;3.78;48.59
20228;BME280;12195;55.790;37.572;2023-04-08T02:54:59;100896.62;;;3.81;48.54
20228;BME280;12195;55.790;37.572;2023-04-08T02:57:31;100888.80;;;3.83;48.69
20228;BME280;12195;55.790;37.572;2023-04-08T03:00:04;100896.57;;;3.86;48.63
20228;BME280;12195;55.790;37.572;2023-04-08T03:02:37;100895.67;;;3.88;48.76
20228;BME280;12195;55.790;37.572;2023-04-08T03:05:09;100900.84;;;3.94;48.36
20228;BME280;12195;55.790;37.572;2023-04-08T03:07:41;100892.15;;;3.97;48.36
20228;BME280;12195;55.790;37.572;2023-04-08T03:10:14;100893.84;;;4.01;48.32
20228;BME280;12195;55.790;37.572;2023-04-08T03:12:46;100895.53;;;4.06;48.47
20228;BME280;12195;55.790;37.572;2023-04-08T03:15:18;100896.34;;;4.11;48.19
20228;BME280;12195;55.790;37.572;2023-04-08T03:17:50;100901.52;;;4.14;48.37
20228;BME280;12195;55.790;37.572;2023-04-08T03:20:22;100899.75;;;4.16;47.99
20228;BME280;12195;55.790;37.572;2023-04-08T03:22:54;100901.45;;;4.19;48.07
20228;BME280;12195;55.790;37.572;2023-04-08T03:25:27;100900.55;;;4.23;48.04
20228;BME280;12195;55.790;37.572;2023-04-08T03:27:59;100903.06;;;4.30;47.67
20228;BME280;12195;55.790;37.572;2023-04-08T03:30:31;100906.50;;;4.35;47.82
20228;BME280;12195;55.790;37.572;2023-04-08T03:33:03;100902.09;;;4.42;47.47
20228;BME280;12195;55.790;37.572;2023-04-08T03:35:37;100903.72;;;4.49;47.17
20228;BME280;12195;55.790;37.572;2023-04-08T03:38:10;100902.78;;;4.56;47.40
20228;BME280;12195;55.790;37.572;2023-04-08T03:40:42;100912.23;;;4.64;46.94
20228;BME280;12195;55.790;37.572;2023-04-08T03:43:14;100905.22;;;4.71;46.77
20228;BME280;12195;55.790;37.572;2023-04-08T03:45:46;100902.52;;;4.78;46.68
20228;BME280;12195;55.790;37.572;2023-04-08T03:48:18;100908.50;;;4.85;46.48
20228;BME280;12195;55.790;37.572;2023-04-08T03:50:50;100896.26;;;4.93;46.35
20228;BME280;12195;55.790;37.572;2023-04-08T03:53:22;100905.70;;;5.01;46.23
20228;BME280;12195;55.790;37.572;2023-04-08T03:55:55;100898.66;;;5.09;45.97
20228;BME280;12195;55.790;37.572;2023-04-08T03:58:28;100906.34;;;5.17;45.77
20228;BME280;12195;55.790;37.572;2023-04-08T04:01:00;100904.50;;;5.25;45.52
20228;BME280;12195;55.790;37.572;2023-04-08T04:03:32;100902.67;;;5.31;45.33
20228;BME280;12195;55.790;37.572;2023-04-08T04:06:05;100904.30;;;5.40;45.24
20228;BME280;12195;55.790;37.572;2023-04-08T04:08:37;100904.19;;;5.46;45.10
20228;BME280;12195;55.790;37.572;2023-04-08T04:11:09;100910.16;;;5.52;45.04
20228;BME280;12195;55.790;37.572;2023-04-08T04:13:42;100911.78;;;5.61;44.75
20228;BME280;12195;55.790;37.572;2023-04-08T04:16:14;100919.47;;;5.68;44.51
20228;BME280;12195;55.790;37.572;2023-04-08T04:18:46;100914.16;;;5.76;44.23
20228;BME280;12195;55.790;37.572;2023-04-08T04:21:20;100909.74;;;5.83;44.13
20228;BME280;12195;55.790;37.572;2023-04-08T04:23:53;100917.41;;;5.92;44.26
20228;BME280;12195;55.790;37.572;2023-04-08T04:26:25;100912.97;;;5.97;43.79
20228;BME280;12195;55.790;37.572;2023-04-08T04:28:57;100910.22;;;6.04;43.61
20228;BME280;12195;55.790;37.572;2023-04-08T04:31:29;100910.97;;;6.11;43.62
20228;BME280;12195;55.790;37.572;2023-04-08T04:34:01;100905.69;;;6.15;43.40
20228;BME280;12195;55.790;37.572;2023-04-08T04:36:34;100909.07;;;6.20;43.37
20228;BME280;12195;55.790;37.572;2023-04-08T04:39:06;100913.30;;;6.27;43.26
20228;BME280;12195;55.790;37.572;2023-04-08T04:41:38;100910.55;;;6.35;43.17
20228;BME280;12195;55.790;37.572;2023-04-08T04:44:10;100915.64;;;6.42;42.97
20228;BME280;12195;55.790;37.572;2023-04-08T04:46:42;100912.90;;;6.48;42.90
20228;BME280;12195;55.790;37.572;2023-04-08T04:49:15;100916.27;;;6.53;42.75
20228;BME280;12195;55.790;37.572;2023-04-08T04:51:47;100914.47;;;6.58;42.67
20228;BME280;12195;55.790;37.572;2023-04-08T04:54:20;100918.67;;;6.64;42.61
20228;BME280;12195;55.790;37.572;2023-04-08T04:56:52;100914.99;;;6.75;42.90
20228;BME280;12195;55.790;37.572;2023-04-08T05:01:52;100920.50;;;7.03;42.25
20228;BME280;12195;55.790;37.572;2023-04-08T05:04:26;100917.95;;;7.00;42.03
20228;BME280;12195;55.790;37.572;2023-04-08T05:06:59;100921.27;;;7.08;41.77
20228;BME280;12195;55.790;37.572;2023-04-08T05:09:31;100920.25;;;7.15;41.65
20228;BME280;12195;55.790;37.572;2023-04-08T05:12:03;100919.17;;;7.23;41.54
20228;BME280;12195;55.790;37.572;2023-04-08T05:14:35;100919.89;;;7.30;41.47
20228;BME280;12195;55.790;37.572;2023-04-08T05:17:07;100929.20;;;7.43;41.45
20228;BME280;12195;55.790;37.572;2023-04-08T05:19:39;100928.13;;;7.51;41.33
20228;BME280;12195;55.790;37.572;2023-04-08T05:22:12;100933.10;;;7.62;41.43
20228;BME280;12195;55.790;37.572;2023-04-08T05:24:44;100931.14;;;7.71;40.86
20228;BME280;12195;55.790;37.572;2023-04-08T05:27:16;100923.01;;;7.83;40.88
20228;BME280;12195;55.790;37.572;2023-04-08T05:29:48;100934.05;;;7.96;40.62
20228;BME280;12195;55.790;37.572;2023-04-08T05:32:21;100929.31;;;8.10;40.54
20228;BME280;12195;55.790;37.572;2023-04-08T05:34:53;100929.05;;;8.22;40.22
20228;BME280;12195;55.790;37.572;2023-04-08T05:37:25;100933.92;;;8.35;40.35
20228;BME280;12195;55.790;37.572;2023-04-08T05:39:57;100935.36;;;8.47;39.91
20228;BME280;12195;55.790;37.572;2023-04-08T05:42:30;100930.67;;;8.59;39.45
20228;BME280;12195;55.790;37.572;2023-04-08T05:45:03;100935.64;;;8.68;39.05
20228;BME280;12195;55.790;37.572;2023-04-08T05:47:36;100936.19;;;8.79;39.25
20228;BME280;12195;55.790;37.572;2023-04-08T05:50:09;100935.05;;;8.89;39.12
20228;BME280;12195;55.790;37.572;2023-04-08T05:52:43;100932.99;;;9.00;38.62
20228;BME280;12195;55.790;37.572;2023-04-08T05:55:17;100935.83;;;9.22;38.25
20228;BME280;12195;55.790;37.572;2023-04-08T05:57:50;100933.80;;;9.59;37.47
20228;BME280;12195;55.790;37.572;2023-04-08T06:00:22;100929.34;;;10.16;36.84
20228;BME280;12195;55.790;37.572;2023-04-08T06:02:56;100933.17;;;10.81;35.36
20228;BME280;12195;55.790;37.572;2023-04-08T06:05:31;100924.83;;;11.39;34.72
20228;BME280;12195;55.790;37.572;2023-04-08T06:08:03;100926.39;;;11.89;33.77
20228;BME280;12195;55.790;37.572;2023-04-08T06:10:36;100918.54;;;12.49;32.83
20228;BME280;12195;55.790;37.572;2023-04-08T06:13:08;100921.41;;;13.59;30.98
20228;BME280;12195;55.790;37.572;2023-04-08T06:15:40;100924.08;;;14.30;29.87
20228;BME280;12195;55.790;37.572;2023-04-08T06:18:12;100917.34;;;14.74;28.92
20228;BME280;12195;55.790;37.572;2023-04-08T06:20:44;100918.13;;;15.08;28.56
20228;BME280;12195;55.790;37.572;2023-04-08T06:23:17;100917.63;;;15.34;28.29
20228;BME280;12195;55.790;37.572;2023-04-08T06:25:49;100912.16;;;15.68;27.83
20228;BME280;12195;55.790;37.572;2023-04-08T06:28:21;100914.62;;;15.87;27.43
20228;BME280;12195;55.790;37.572;2023-04-08T06:30:54;100912.13;;;16.29;26.74
20228;BME280;12195;55.790;37.572;2023-04-08T06:33:27;100912.70;;;16.50;26.19
20228;BME280;12195;55.790;37.572;2023-04-08T06:36:03;100914.14;;;16.55;26.42
20228;BME280;12195;55.790;37.572;2023-04-08T06:38:36;100916.27;;;17.06;25.76
20228;BME280;12195;55.790;37.572;2023-04-08T06:41:08;100908.31;;;17.20;25.55
20228;BME280;12195;55.790;37.572;2023-04-08T06:43:41;100906.52;;;17.75;24.94
20228;BME280;12195;55.790;37.572;2023-04-08T06:46:13;100907.33;;;18.55;23.72
20228;BME280;12195;55.790;37.572;2023-04-08T06:48:46;100907.30;;;19.18;22.91
20228;BME280;12195;55.790;37.572;2023-04-08T06:51:19;100900.64;;;19.61;22.52
20228;BME280;12195;55.790;37.572;2023-04-08T06:53:51;100901.51;;;20.08;22.04
20228;BME280;12195;55.790;37.572;2023-04-08T06:56:24;100892.83;;;21.20;21.29
20228;BME280;12195;55.790;37.572;2023-04-08T06:58:56;100900.31;;;22.12;20.03
20228;BME280;12195;55.790;37.572;2023-04-08T07:01:28;100900.98;;;22.25;19.88
20228;BME280;12195;55.790;37.572;2023-04-08T07:04:02;100898.90;;;21.97;20.20
20228;BME280;12195;55.790;37.572;2023-04-08T07:06:34;100904.89;;;21.90;20.14
20228;BME280;12195;55.790;37.572;2023-04-08T07:09:06;100895.59;;;21.51;20.54
20228;BME280;12195;55.790;37.572;2023-04-08T07:11:40;100896.42;;;20.86;20.94
20228;BME280;12195;55.790;37.572;2023-04-08T07:14:12;100895.89;;;20.24;21.55
20228;BME280;12195;55.790;37.572;2023-04-08T07:16:44;100889.88;;;19.86;22.08
20228;BME280;12195;55.790;37.572;2023-04-08T07:19:17;100902.84;;;19.18;22.58
20228;BME280;12195;55.790;37.572;2023-04-08T07:21:49;100900.12;;;17.51;24.30
20228;BME280;12195;55.790;37.572;2023-04-08T07:24:22;100862.02;;;16.54;25.36
20228;BME280;12195;55.790;37.572;2023-04-08T07:26:55;100862.02;;;16.54;25.36
20228;BME280;12195;55.790;37.572;2023-04-08T07:29:27;100892.27;;;16.07;26.34
20228;BME280;12195;55.790;37.572;2023-04-08T07:32:00;100903.52;;;15.49;26.86
20228;BME280;12195;55.790;37.572;2023-04-08T07:34:34;100907.81;;;15.04;27.68
20228;BME280;12195;55.790;37.572;2023-04-08T07:37:07;100906.88;;;14.72;27.88
20228;BME280;12195;55.790;37.572;2023-04-08T07:39:39;100903.47;;;14.53;28.19
20228;BME280;12195;55.790;37.572;2023-04-08T07:42:11;100905.19;;;14.37;28.69
20228;BME280;12195;55.790;37.572;2023-04-08T07:44:45;100902.22;;;14.26;28.85
20228;BME280;12195;55.790;37.572;2023-04-08T07:47:17;100906.09;;;14.19;29.04
20228;BME280;12195;55.790;37.572;2023-04-08T07:49:49;100908.09;;;14.14;29.12
20228;BME280;12195;55.790;37.572;2023-04-08T07:52:22;100898.71;;;14.09;29.64
20228;BME280;12195;55.790;37.572;2023-04-08T07:54:55;100902.26;;;14.08;29.54
20228;BME280;12195;55.790;37.572;2023-04-08T07:57:28;100906.78;;;14.06;29.69
20228;BME280;12195;55.790;37.572;2023-04-08T08:00:00;100903.27;;;14.05;29.73
20228;BME280;12195;55.790;37.572;2023-04-08T08:02:36;100906.30;;;13.98;29.57
20228;BME280;12195;55.790;37.572;2023-04-08T08:05:09;100901.95;;;13.97;29.75
20228;BME280;12195;55.790;37.572;2023-04-08T08:07:41;100900.80;;;14.02;29.53
20228;BME280;12195;55.790;37.572;2023-04-08T08:10:14;100896.28;;;14.04;29.22
20228;BME280;12195;55.790;37.572;2023-04-08T08:12:46;100907.40;;;14.11;29.56
20228;BME280;12195;55.790;37.572;2023-04-08T08:15:18;100897.63;;;14.13;29.62
20228;BME280;12195;55.790;37.572;2023-04-08T08:17:51;100899.19;;;14.17;29.62
20228;BME280;12195;55.790;37.572;2023-04-08T08:20:23;100902.66;;;14.17;29.41
20228;BME280;12195;55.790;37.572;2023-04-08T08:22:56;100899.08;;;14.18;29.72
20228;BME280;12195;55.790;37.572;2023-04-08T08:25:29;100893.72;;;14.20;29.55
20228;BME280;12195;55.790;37.572;2023-04-08T08:28:02;100897.80;;;14.27;29.80
20228;BME280;12195;55.790;37.572;2023-04-08T08:30:35;100900.38;;;14.28;29.48
20228;BME280;12195;55.790;37.572;2023-04-08T08:33:08;100894.08;;;14.31;29.50
20228;BME280;12195;55.790;37.572;2023-04-08T08:35:40;100898.67;;;14.27;29.21
20228;BME280;12195;55.790;37.572;2023-04-08T08:38:13;100897.19;;;14.22;28.79
20228;BME280;12195;55.790;37.572;2023-04-08T08:43:46;100888.91;;;14.11;29.15
20228;BME280;12195;55.790;37.572;2023-04-08T08:46:19;100887.89;;;14.13;29.06
20228;BME280;12195;55.790;37.572;2023-04-08T08:48:51;100886.12;;;14.14;29.00
20228;BME280;12195;55.790;37.572;2023-04-08T08:51:23;100885.40;;;14.10;28.93
20228;BME280;12195;55.790;37.572;2023-04-08T08:53:56;100886.27;;;14.11;29.14
20228;BME280;12195;55.790;37.572;2023-04-08T08:56:28;100889.84;;;14.10;29.21
20228;BME280;12195;55.790;37.572;2023-04-08T08:59:00;100886.27;;;14.11;29.07
20228;BME280;12195;55.790;37.572;2023-04-08T09:01:36;100879.14;;;14.13;29.22
20228;BME280;12195;55.790;37.572;2023-04-08T09:04:12;100878.27;;;14.12;28.91
20228;BME280;12195;55.790;37.572;2023-04-08T09:06:49;100877.18;;;14.16;31.25
20228;BME280;12195;55.790;37.572;2023-04-08T09:09:23;100878.95;;;14.16;29.88
20228;BME280;12195;55.790;37.572;2023-04-08T09:12:03;100882.17;;;14.22;28.96
20228;BME280;12195;55.790;37.572;2023-04-08T09:14:36;100875.98;;;14.23;28.78
20228;BME280;12195;55.790;37.572;2023-04-08T09:17:10;100877.68;;;14.24;28.95
20228;BME280;12195;55.790;37.572;2023-04-08T09:20:03;100870.52;;;14.26;30.46
20228;BME280;12195;55.790;37.572;2023-04-08T09:22:57;100873.16;;;14.26;30.05
20228;BME280;12195;55.790;37.572;2023-04-08T09:25:31;100887.23;;;14.27;29.10
20228;BME280;12195;55.790;37.572;2023-04-08T09:28:04;100886.55;;;14.23;29.33
20228;BME280;12195;55.790;37.572;2023-04-08T09:30:36;100882.39;;;14.18;29.72
20228;BME280;12195;55.790;37.572;2023-04-08T09:33:09;100880.51;;;14.03;29.73
20228;BME280;12195;55.790;37.572;2023-04-08T09:35:41;100886.19;;;13.95;30.14
20228;BME280;12195;55.790;37.572;2023-04-08T09:38:16;100879.34;;;13.91;30.15
20228;BME280;12195;55.790;37.572;2023-04-08T09:40:49;100880.28;;;13.90;30.99
20228;BME280;12195;55.790;37.572;2023-04-08T09:43:23;100875.22;;;13.86;30.51
20228;BME280;12195;55.790;37.572;2023-04-08T09:45:56;100875.22;;;13.86;31.35
20228;BME280;12195;55.790;37.572;2023-04-08T09:48:31;100879.42;;;14.07;30.50
20228;BME280;12195;55.790;37.572;2023-04-08T09:51:05;100868.78;;;13.91;30.55
20228;BME280;12195;55.790;37.572;2023-04-08T09:53:42;100865.27;;;13.91;30.45
20228;BME280;12195;55.790;37.572;2023-04-08T09:56:16;100869.33;;;13.98;30.83
20228;BME280;12195;55.790;37.572;2023-04-08T09:59:07;100855.73;;;14.05;30.93
20228;BME280;12195;55.790;37.572;2023-04-08T10:01:49;100854.49;;;14.12;30.97
20228;BME280;12195;55.790;37.572;2023-04-08T10:04:15;100855.98;;;14.18;30.53
20228;BME280;12195;55.790;37.572;2023-04-08T10:06:53;100862.70;;;14.25;30.94
20228;BME280;12195;55.790;37.572;2023-04-08T10:09:27;100858.33;;;14.24;30.37
20228;BME280;12195;55.790;37.572;2023-04-08T10:12:01;100857.95;;;14.31;30.39
20228;BME280;12195;55.790;37.572;2023-04-08T10:14:34;100849.00;;;14.34;29.99
20228;BME280;12195;55.790;37.572;2023-04-08T10:17:25;100854.83;;;14.40;30.52
20228;BME280;12195;55.790;37.572;2023-04-08T10:19:58;100852.87;;;14.44;30.10
20228;BME280;12195;55.790;37.572;2023-04-08T10:22:47;100854.27;;;14.51;30.44
20228;BME280;12195;55.790;37.572;2023-04-08T10:25:27;100835.69;;;14.52;30.16
20228;BME280;12195;55.790;37.572;2023-04-08T10:30:46;100836.66;;;14.67;30.09
20228;BME280;12195;55.790;37.572;2023-04-08T10:36:09;100829.43;;;14.86;29.67
20228;BME280;12195;55.790;37.572;2023-04-08T10:38:42;100831.84;;;14.90;29.37
20228;BME280;12195;55.790;37.572;2023-04-08T10:41:19;100826.98;;;14.98;29.07
20228;BME280;12195;55.790;37.572;2023-04-08T10:43:51;100829.20;;;15.06;28.77
20228;BME280;12195;55.790;37.572;2023-04-08T10:46:28;100820.78;;;15.15;27.61
20228;BME280;12195;55.790;37.572;2023-04-08T10:49:00;100820.27;;;15.24;27.73
20228;BME280;12195;55.790;37.572;2023-04-08T10:51:32;100820.52;;;15.35;27.14
20228;BME280;12195;55.790;37.572;2023-04-08T10:54:09;100820.44;;;15.36;26.67
20228;BME280;12195;55.790;37.572;2023-04-08T10:56:47;100820.28;;;15.39;27.23
20228;BME280;12195;55.790;37.572;2023-04-08T10:59:30;100811.31;;;15.42;27.44
20228;BME280;12195;55.790;37.572;2023-04-08T11:02:03;100816.69;;;15.40;27.68
20228;BME280;12195;55.790;37.572;2023-04-08T11:04:40;100807.98;;;15.38;28.16
20228;BME280;12195;55.790;37.572;2023-04-08T11:07:11;100813.95;;;15.42;29.31
20228;BME280;12195;55.790;37.572;2023-04-08T11:09:44;100804.98;;;15.44;28.03
20228;BME280;12195;55.790;37.572;2023-04-08T11:12:16;100802.25;;;15.46;28.08
20228;BME280;12195;55.790;37.572;2023-04-08T11:14:51;100800.39;;;15.48;28.69
20228;BME280;12195;55.790;37.572;2023-04-08T11:17:23;100795.50;;;15.56;28.48
20228;BME280;12195;55.790;37.572;2023-04-08T11:19:56;100788.06;;;15.62;28.54
20228;BME280;12195;55.790;37.572;2023-04-08T11:22:30;100785.99;;;15.67;28.52
20228;BME280;12195;55.790;37.572;2023-04-08T11:25:05;100790.25;;;15.70;27.68
20228;BME280;12195;55.790;37.572;2023-04-08T11:27:40;100795.38;;;15.73;27.72
20228;BME280;12195;55.790;37.572;2023-04-08T11:30:13;100783.66;;;15.77;28.56
20228;BME280;12195;55.790;37.572;2023-04-08T11:32:46;100787.84;;;15.81;28.62
20228;BME280;12195;55.790;37.572;2023-04-08T11:35:18;100788.98;;;15.91;27.56
20228;BME280;12195;55.790;37.572;2023-04-08T11:37:52;100784.00;;;16.01;26.97
20228;BME280;12195;55.790;37.572;2023-04-08T11:40:25;100785.63;;;16.17;27.49
20228;BME280;12195;55.790;37.572;2023-04-08T11:42:58;100777.80;;;16.30;27.50
20228;BME280;12195;55.790;37.572;2023-04-08T11:45:36;100777.64;;;16.47;27.30
20228;BME280;12195;55.790;37.572;2023-04-08T11:48:10;100777.53;;;16.62;27.09
20228;BME280;12195;55.790;37.572;2023-04-08T11:50:43;100774.03;;;16.76;26.61
20228;BME280;12195;55.790;37.572;2023-04-08T11:53:26;100780.35;;;16.87;26.79
20228;BME280;12195;55.790;37.572;2023-04-08T11:56:14;100761.00;;;16.99;26.46
20228;BME280;12195;55.790;37.572;2023-04-08T11:58:33;100762.82;;;16.99;26.53
20228;BME280;12195;55.790;37.572;2023-04-08T12:01:06;100762.82;;;16.99;26.53
20228;BME280;12195;55.790;37.572;2023-04-08T12:03:59;100768.87;;;17.01;25.53
20228;BME280;12195;55.790;37.572;2023-04-08T12:06:32;100761.17;;;17.10;26.19
20228;BME280;12195;55.790;37.572;2023-04-08T12:09:05;100757.82;;;17.21;26.41
20228;BME280;12195;55.790;37.572;2023-04-08T12:11:38;100759.77;;;17.31;26.37
20228;BME280;12195;55.790;37.572;2023-04-08T12:14:11;100764.98;;;17.47;26.28
20228;BME280;12195;55.790;37.572;2023-04-08T12:16:43;100742.36;;;17.54;25.95
20228;BME280;12195;55.790;37.572;2023-04-08T12:19:15;100756.64;;;18.42;25.40
20228;BME280;12195;55.790;37.572;2023-04-08T12:21:47;100756.64;;;18.42;25.40
20228;BME280;12195;55.790;37.572;2023-04-08T12:24:20;100751.97;;;19.30;24.17
20228;BME280;12195;55.790;37.572;2023-04-08T12:26:52;100750.86;;;20.25;22.39
20228;BME280;12195;55.790;37.572;2023-04-08T12:29:24;100743.36;;;22.02;20.74
20228;BME280;12195;55.790;37.572;2023-04-08T12:31:56;100734.50;;;23.69;18.99
20228;BME280;12195;55.790;37.572;2023-04-08T12:34:28;100739.76;;;25.36;17.64
20228;BME280;12195;55.790;37.572;2023-04-08T12:37:01;100720.26;;;26.63;16.11
20228;BME280;12195;55.790;37.572;2023-04-08T12:39:33;100718.41;;;27.94;15.44
20228;BME280;12195;55.790;37.572;2023-04-08T12:42:05;100712.00;;;29.35;14.38
20228;BME280;12195;55.790;37.572;2023-04-08T12:44:37;100716.58;;;30.54;13.50
20228;BME280;12195;55.790;37.572;2023-04-08T12:47:10;100720.73;;;31.50;12.79
20228;BME280;12195;55.790;37.572;2023-04-08T12:49:43;100711.92;;;32.11;12.11
20228;BME280;12195;55.790;37.572;2023-04-08T12:52:17;100705.93;;;32.83;11.85
20228;BME280;12195;55.790;37.572;2023-04-08T12:54:49;100723.81;;;34.63;15.20
20228;BME280;12195;55.790;37.572;2023-04-08T12:57:21;100702.47;;;34.34;11.11
20228;BME280;12195;55.790;37.572;2023-04-08T12:59:53;100705.15;;;34.54;10.59
20228;BME280;12195;55.790;37.572;2023-04-08T13:02:26;100702.23;;;34.36;10.94
20228;BME280;12195;55.790;37.572;2023-04-08T13:04:59;100691.73;;;33.74;11.11
20228;BME280;12195;55.790;37.572;2023-04-08T13:07:31;100689.14;;;32.80;11.61
20228;BME280;12195;55.790;37.572;2023-04-08T13:10:03;100697.27;;;31.84;12.21
20228;BME280;12195;55.790;37.572;2023-04-08T13:12:37;100694.74;;;31.41;12.57
20228;BME280;12195;55.790;37.572;2023-04-08T13:15:10;100692.75;;;31.49;12.71
20228;BME280;12195;55.790;37.572;2023-04-08T13:17:43;100687.70;;;31.46;12.67
20228;BME280;12195;55.790;37.572;2023-04-08T13:20:15;100683.94;;;31.47;12.78
20228;BME280;12195;55.790;37.572;2023-04-08T13:22:47;100688.67;;;31.60;12.75
20228;BME280;12195;55.790;37.572;2023-04-08T13:25:20;100680.13;;;31.42;12.89
20228;BME280;12195;55.790;37.572;2023-04-08T13:27:52;100679.75;;;31.09;13.13
20228;BME280;12195;55.790;37.572;2023-04-08T13:30:24;100678.70;;;30.31;13.42